KADG/ADG METAR and TAF weather

Enter ICAO airport designator
Station Type Date Time Source
KADG METAR 2018/12/18 10:53 UTC NOAA

KADG 181053Z AUTO 34004KT 10SM CLR M05/M07 A3024 RMK AO2 SLP253 T10501072 TSNO


Station Type Date Time Source
KADG Decoded METAR 2018/12/18 10:53 UTC NOAA

ADRIAN LENAWEE COUNTY AIRPORT, MI, United States (KADG) 41-52N 84-05W 241M
Dec 18, 2018 - 05:53 AM EST / 2018.12.18 1053 UTC
Wind: from the NNW (340 degrees) at 5 MPH (4 KT):0
Visibility: 10 mile(s):0
Sky conditions: clear
Temperature: 23.0 F (-5.0 C)
Windchill: 15 F (-9 C):1
Dew Point: 19.0 F (-7.2 C)
Relative Humidity: 84%
Pressure (altimeter): 30.24 in. Hg (1024 hPa)
ob: KADG 181053Z AUTO 34004KT 10SM CLR M05/M07 A3024 RMK AO2 SLP253 T10501072 TSNO
cycle: 11

Station Type Date Time Source
KADG TAF UTC NOAA

Error!


Example: see airport list